sensor_id;sensor_type;location;lat;lon;timestamp;P1;durP1;ratioP1;P2;durP2;ratioP2
54993;SDS011;40891;47.242;8.648;2023-08-20T00:01:42;13.23;;;5.05;;
54993;SDS011;40891;47.242;8.648;2023-08-20T00:04:08;14.38;;;5.25;;
54993;SDS011;40891;47.242;8.648;2023-08-20T00:06:34;7.15;;;4.75;;
54993;SDS011;40891;47.242;8.648;2023-08-20T00:09:00;9.30;;;4.80;;
54993;SDS011;40891;47.242;8.648;2023-08-20T00:11:25;9.95;;;4.85;;
54993;SDS011;40891;47.242;8.648;2023-08-20T00:13:50;10.00;;;4.78;;
54993;SDS011;40891;47.242;8.648;2023-08-20T00:16:16;9.43;;;4.70;;
54993;SDS011;40891;47.242;8.648;2023-08-20T00:18:41;9.63;;;4.72;;
54993;SDS011;40891;47.242;8.648;2023-08-20T00:21:07;13.15;;;5.38;;
54993;SDS011;40891;47.242;8.648;2023-08-20T00:23:33;11.95;;;4.85;;
54993;SDS011;40891;47.242;8.648;2023-08-20T00:25:59;7.82;;;4.60;;
54993;SDS011;40891;47.242;8.648;2023-08-20T00:28:25;7.97;;;5.28;;
54993;SDS011;40891;47.242;8.648;2023-08-20T00:30:50;12.05;;;5.00;;
54993;SDS011;40891;47.242;8.648;2023-08-20T00:33:16;12.52;;;4.90;;
54993;SDS011;40891;47.242;8.648;2023-08-20T00:35:42;13.32;;;5.93;;
54993;SDS011;40891;47.242;8.648;2023-08-20T00:38:07;8.68;;;5.10;;
54993;SDS011;40891;47.242;8.648;2023-08-20T00:40:32;10.30;;;5.22;;
54993;SDS011;40891;47.242;8.648;2023-08-20T00:42:58;6.70;;;5.40;;
54993;SDS011;40891;47.242;8.648;2023-08-20T00:45:23;11.02;;;5.13;;
54993;SDS011;40891;47.242;8.648;2023-08-20T00:47:49;15.40;;;4.90;;
54993;SDS011;40891;47.242;8.648;2023-08-20T00:50:16;7.97;;;5.10;;
54993;SDS011;40891;47.242;8.648;2023-08-20T00:52:41;14.27;;;5.82;;
54993;SDS011;40891;47.242;8.648;2023-08-20T00:55:08;14.50;;;5.60;;
54993;SDS011;40891;47.242;8.648;2023-08-20T00:57:35;10.13;;;5.35;;
54993;SDS011;40891;47.242;8.648;2023-08-20T01:00:01;11.65;;;5.65;;
54993;SDS011;40891;47.242;8.648;2023-08-20T01:02:31;7.80;;;5.03;;
54993;SDS011;40891;47.242;8.648;2023-08-20T01:04:57;13.30;;;5.32;;
54993;SDS011;40891;47.242;8.648;2023-08-20T01:12:42;9.63;;;5.57;;
54993;SDS011;40891;47.242;8.648;2023-08-20T01:15:09;9.23;;;5.82;;
54993;SDS011;40891;47.242;8.648;2023-08-20T01:17:39;10.00;;;5.40;;
54993;SDS011;40891;47.242;8.648;2023-08-20T01:20:05;7.22;;;5.10;;
54993;SDS011;40891;47.242;8.648;2023-08-20T01:28:03;13.90;;;5.40;;
54993;SDS011;40891;47.242;8.648;2023-08-20T01:30:51;8.88;;;5.40;;
54993;SDS011;40891;47.242;8.648;2023-08-20T01:33:19;11.20;;;5.50;;
54993;SDS011;40891;47.242;8.648;2023-08-20T01:35:45;10.80;;;5.22;;
54993;SDS011;40891;47.242;8.648;2023-08-20T01:38:10;9.13;;;5.25;;
54993;SDS011;40891;47.242;8.648;2023-08-20T01:40:35;10.35;;;5.35;;
54993;SDS011;40891;47.242;8.648;2023-08-20T01:43:01;11.13;;;5.70;;
54993;SDS011;40891;47.242;8.648;2023-08-20T01:45:26;11.90;;;5.18;;
54993;SDS011;40891;47.242;8.648;2023-08-20T01:47:51;16.52;;;5.95;;
54993;SDS011;40891;47.242;8.648;2023-08-20T01:50:17;10.10;;;5.78;;
54993;SDS011;40891;47.242;8.648;2023-08-20T01:52:43;7.68;;;5.20;;
54993;SDS011;40891;47.242;8.648;2023-08-20T01:55:08;7.80;;;5.78;;
54993;SDS011;40891;47.242;8.648;2023-08-20T01:57:33;12.45;;;5.90;;
54993;SDS011;40891;47.242;8.648;2023-08-20T01:59:58;12.30;;;5.95;;
54993;SDS011;40891;47.242;8.648;2023-08-20T02:02:24;10.27;;;5.40;;
54993;SDS011;40891;47.242;8.648;2023-08-20T02:04:50;10.02;;;5.45;;
54993;SDS011;40891;47.242;8.648;2023-08-20T02:07:15;19.10;;;5.70;;
54993;SDS011;40891;47.242;8.648;2023-08-20T02:09:41;10.40;;;6.22;;
54993;SDS011;40891;47.242;8.648;2023-08-20T02:12:06;12.75;;;5.45;;
54993;SDS011;40891;47.242;8.648;2023-08-20T02:14:32;12.88;;;5.80;;
54993;SDS011;40891;47.242;8.648;2023-08-20T02:17:00;14.40;;;5.70;;
54993;SDS011;40891;47.242;8.648;2023-08-20T02:19:28;14.85;;;6.60;;
54993;SDS011;40891;47.242;8.648;2023-08-20T02:21:53;8.85;;;5.75;;
54993;SDS011;40891;47.242;8.648;2023-08-20T02:24:19;7.90;;;5.70;;
54993;SDS011;40891;47.242;8.648;2023-08-20T02:26:44;10.45;;;5.90;;
54993;SDS011;40891;47.242;8.648;2023-08-20T02:29:09;9.63;;;5.63;;
54993;SDS011;40891;47.242;8.648;2023-08-20T02:31:35;9.93;;;5.80;;
54993;SDS011;40891;47.242;8.648;2023-08-20T02:34:00;14.48;;;6.07;;
54993;SDS011;40891;47.242;8.648;2023-08-20T02:36:26;12.18;;;5.50;;
54993;SDS011;40891;47.242;8.648;2023-08-20T02:38:51;8.00;;;5.72;;
54993;SDS011;40891;47.242;8.648;2023-08-20T02:41:16;10.48;;;5.72;;
54993;SDS011;40891;47.242;8.648;2023-08-20T02:43:42;10.10;;;6.05;;
54993;SDS011;40891;47.242;8.648;2023-08-20T02:46:07;7.63;;;5.45;;
54993;SDS011;40891;47.242;8.648;2023-08-20T02:48:32;12.40;;;5.63;;
54993;SDS011;40891;47.242;8.648;2023-08-20T02:50:58;13.10;;;6.20;;
54993;SDS011;40891;47.242;8.648;2023-08-20T02:53:23;10.57;;;6.10;;
54993;SDS011;40891;47.242;8.648;2023-08-20T02:55:49;8.85;;;6.03;;
54993;SDS011;40891;47.242;8.648;2023-08-20T02:58:14;12.15;;;6.22;;
54993;SDS011;40891;47.242;8.648;2023-08-20T03:00:39;10.70;;;6.00;;
54993;SDS011;40891;47.242;8.648;2023-08-20T03:03:05;10.57;;;5.90;;
54993;SDS011;40891;47.242;8.648;2023-08-20T03:05:32;12.38;;;6.22;;
54993;SDS011;40891;47.242;8.648;2023-08-20T03:07:58;11.43;;;6.15;;
54993;SDS011;40891;47.242;8.648;2023-08-20T03:10:23;11.05;;;6.47;;
54993;SDS011;40891;47.242;8.648;2023-08-20T03:12:49;15.25;;;6.63;;
54993;SDS011;40891;47.242;8.648;2023-08-20T03:15:14;11.27;;;5.68;;
54993;SDS011;40891;47.242;8.648;2023-08-20T03:17:39;13.50;;;5.90;;
54993;SDS011;40891;47.242;8.648;2023-08-20T03:20:05;11.77;;;5.95;;
54993;SDS011;40891;47.242;8.648;2023-08-20T03:22:31;10.48;;;6.38;;
54993;SDS011;40891;47.242;8.648;2023-08-20T03:24:56;11.73;;;5.97;;
54993;SDS011;40891;47.242;8.648;2023-08-20T03:27:21;11.00;;;6.18;;
54993;SDS011;40891;47.242;8.648;2023-08-20T03:29:47;13.40;;;6.32;;
54993;SDS011;40891;47.242;8.648;2023-08-20T03:32:12;11.63;;;5.75;;
54993;SDS011;40891;47.242;8.648;2023-08-20T03:34:37;14.43;;;6.00;;
54993;SDS011;40891;47.242;8.648;2023-08-20T03:37:03;11.70;;;6.35;;
54993;SDS011;40891;47.242;8.648;2023-08-20T03:39:29;13.45;;;6.70;;
54993;SDS011;40891;47.242;8.648;2023-08-20T03:41:54;12.57;;;6.00;;
54993;SDS011;40891;47.242;8.648;2023-08-20T03:44:19;11.45;;;6.25;;
54993;SDS011;40891;47.242;8.648;2023-08-20T03:46:45;13.07;;;5.90;;
54993;SDS011;40891;47.242;8.648;2023-08-20T03:49:10;12.35;;;6.53;;
54993;SDS011;40891;47.242;8.648;2023-08-20T03:51:36;11.60;;;6.30;;
54993;SDS011;40891;47.242;8.648;2023-08-20T03:54:01;13.68;;;5.93;;
54993;SDS011;40891;47.242;8.648;2023-08-20T03:56:27;15.13;;;6.55;;
54993;SDS011;40891;47.242;8.648;2023-08-20T03:58:52;8.25;;;6.07;;
54993;SDS011;40891;47.242;8.648;2023-08-20T04:01:18;11.10;;;5.75;;
54993;SDS011;40891;47.242;8.648;2023-08-20T04:03:45;10.05;;;6.13;;
54993;SDS011;40891;47.242;8.648;2023-08-20T04:06:11;12.27;;;6.40;;
54993;SDS011;40891;47.242;8.648;2023-08-20T04:08:36;15.02;;;6.65;;
54993;SDS011;40891;47.242;8.648;2023-08-20T04:11:01;14.45;;;6.03;;
54993;SDS011;40891;47.242;8.648;2023-08-20T04:13:28;15.15;;;6.40;;
54993;SDS011;40891;47.242;8.648;2023-08-20T04:15:53;11.38;;;6.55;;
54993;SDS011;40891;47.242;8.648;2023-08-20T04:18:19;11.90;;;6.50;;
54993;SDS011;40891;47.242;8.648;2023-08-20T04:20:44;11.25;;;6.72;;
54993;SDS011;40891;47.242;8.648;2023-08-20T04:23:09;12.00;;;6.30;;
54993;SDS011;40891;47.242;8.648;2023-08-20T04:25:34;9.75;;;6.10;;
54993;SDS011;40891;47.242;8.648;2023-08-20T04:28:00;9.85;;;6.30;;
54993;SDS011;40891;47.242;8.648;2023-08-20T04:30:25;9.82;;;6.47;;
54993;SDS011;40891;47.242;8.648;2023-08-20T04:32:50;10.50;;;5.95;;
54993;SDS011;40891;47.242;8.648;2023-08-20T04:35:16;13.52;;;6.38;;
54993;SDS011;40891;47.242;8.648;2023-08-20T04:37:41;17.95;;;6.05;;
54993;SDS011;40891;47.242;8.648;2023-08-20T04:40:06;13.70;;;6.13;;
54993;SDS011;40891;47.242;8.648;2023-08-20T04:42:33;8.98;;;6.22;;
54993;SDS011;40891;47.242;8.648;2023-08-20T04:44:58;11.73;;;6.47;;
54993;SDS011;40891;47.242;8.648;2023-08-20T04:47:23;11.07;;;6.63;;
54993;SDS011;40891;47.242;8.648;2023-08-20T04:49:49;13.27;;;6.47;;
54993;SDS011;40891;47.242;8.648;2023-08-20T04:52:14;18.27;;;6.65;;
54993;SDS011;40891;47.242;8.648;2023-08-20T04:54:39;9.73;;;6.07;;
54993;SDS011;40891;47.242;8.648;2023-08-20T04:57:04;14.93;;;6.80;;
54993;SDS011;40891;47.242;8.648;2023-08-20T04:59:30;13.05;;;7.13;;
54993;SDS011;40891;47.242;8.648;2023-08-20T05:01:55;12.13;;;6.82;;
54993;SDS011;40891;47.242;8.648;2023-08-20T05:04:22;9.80;;;6.90;;
54993;SDS011;40891;47.242;8.648;2023-08-20T05:06:47;13.95;;;7.13;;
54993;SDS011;40891;47.242;8.648;2023-08-20T05:09:13;12.43;;;6.78;;
54993;SDS011;40891;47.242;8.648;2023-08-20T05:11:38;13.45;;;6.65;;
54993;SDS011;40891;47.242;8.648;2023-08-20T05:14:03;17.13;;;6.60;;
54993;SDS011;40891;47.242;8.648;2023-08-20T05:16:29;12.55;;;6.43;;
54993;SDS011;40891;47.242;8.648;2023-08-20T05:18:54;12.25;;;6.68;;
54993;SDS011;40891;47.242;8.648;2023-08-20T05:21:19;12.73;;;6.97;;
54993;SDS011;40891;47.242;8.648;2023-08-20T05:23:45;10.23;;;6.30;;
54993;SDS011;40891;47.242;8.648;2023-08-20T05:26:10;14.07;;;6.47;;
54993;SDS011;40891;47.242;8.648;2023-08-20T05:28:35;10.57;;;6.57;;
54993;SDS011;40891;47.242;8.648;2023-08-20T05:31:00;9.38;;;6.43;;
54993;SDS011;40891;47.242;8.648;2023-08-20T05:33:26;8.57;;;6.43;;
54993;SDS011;40891;47.242;8.648;2023-08-20T05:35:51;11.30;;;6.53;;
54993;SDS011;40891;47.242;8.648;2023-08-20T05:38:16;12.98;;;6.28;;
54993;SDS011;40891;47.242;8.648;2023-08-20T05:40:42;12.32;;;6.03;;
54993;SDS011;40891;47.242;8.648;2023-08-20T05:43:08;13.27;;;6.07;;
54993;SDS011;40891;47.242;8.648;2023-08-20T05:45:33;11.30;;;6.40;;
54993;SDS011;40891;47.242;8.648;2023-08-20T05:47:58;11.00;;;6.00;;
54993;SDS011;40891;47.242;8.648;2023-08-20T05:50:24;13.85;;;5.97;;
54993;SDS011;40891;47.242;8.648;2023-08-20T05:52:49;12.52;;;5.65;;
54993;SDS011;40891;47.242;8.648;2023-08-20T05:55:14;10.98;;;5.43;;
54993;SDS011;40891;47.242;8.648;2023-08-20T05:57:41;8.05;;;5.88;;
54993;SDS011;40891;47.242;8.648;2023-08-20T06:00:08;10.60;;;5.88;;
54993;SDS011;40891;47.242;8.648;2023-08-20T06:02:33;14.88;;;6.43;;
54993;SDS011;40891;47.242;8.648;2023-08-20T06:04:59;10.85;;;6.13;;
54993;SDS011;40891;47.242;8.648;2023-08-20T06:07:24;14.85;;;6.03;;
54993;SDS011;40891;47.242;8.648;2023-08-20T06:09:49;11.40;;;6.22;;
54993;SDS011;40891;47.242;8.648;2023-08-20T06:12:15;11.27;;;6.30;;
54993;SDS011;40891;47.242;8.648;2023-08-20T06:14:41;13.18;;;6.60;;
54993;SDS011;40891;47.242;8.648;2023-08-20T06:17:06;9.40;;;6.22;;
54993;SDS011;40891;47.242;8.648;2023-08-20T06:19:31;12.60;;;6.30;;
54993;SDS011;40891;47.242;8.648;2023-08-20T06:21:57;11.55;;;6.03;;
54993;SDS011;40891;47.242;8.648;2023-08-20T06:24:23;9.40;;;5.93;;
54993;SDS011;40891;47.242;8.648;2023-08-20T06:26:48;10.55;;;6.15;;
54993;SDS011;40891;47.242;8.648;2023-08-20T06:29:14;11.63;;;5.70;;
54993;SDS011;40891;47.242;8.648;2023-08-20T06:31:39;9.07;;;4.95;;
54993;SDS011;40891;47.242;8.648;2023-08-20T06:34:04;8.40;;;5.70;;
54993;SDS011;40891;47.242;8.648;2023-08-20T06:36:30;11.35;;;5.22;;
54993;SDS011;40891;47.242;8.648;2023-08-20T06:38:55;10.70;;;5.80;;
54993;SDS011;40891;47.242;8.648;2023-08-20T06:41:20;10.95;;;5.60;;
54993;SDS011;40891;47.242;8.648;2023-08-20T06:43:46;12.93;;;5.80;;
54993;SDS011;40891;47.242;8.648;2023-08-20T06:46:11;16.42;;;6.43;;
54993;SDS011;40891;47.242;8.648;2023-08-20T06:48:36;13.63;;;5.35;;
54993;SDS011;40891;47.242;8.648;2023-08-20T06:51:10;9.48;;;5.53;;
54993;SDS011;40891;47.242;8.648;2023-08-20T06:53:39;9.82;;;5.75;;
54993;SDS011;40891;47.242;8.648;2023-08-20T06:56:05;10.05;;;5.40;;
54993;SDS011;40891;47.242;8.648;2023-08-20T06:58:34;12.30;;;5.40;;
54993;SDS011;40891;47.242;8.648;2023-08-20T07:01:00;10.48;;;5.80;;
54993;SDS011;40891;47.242;8.648;2023-08-20T07:03:39;9.43;;;5.75;;
54993;SDS011;40891;47.242;8.648;2023-08-20T07:06:05;12.23;;;5.88;;
54993;SDS011;40891;47.242;8.648;2023-08-20T07:08:31;10.05;;;5.65;;
54993;SDS011;40891;47.242;8.648;2023-08-20T07:10:57;11.80;;;6.05;;
54993;SDS011;40891;47.242;8.648;2023-08-20T07:13:22;11.55;;;5.75;;
54993;SDS011;40891;47.242;8.648;2023-08-20T07:15:48;8.40;;;4.72;;
54993;SDS011;40891;47.242;8.648;2023-08-20T07:18:14;10.90;;;5.43;;
54993;SDS011;40891;47.242;8.648;2023-08-20T07:20:41;10.43;;;5.00;;
54993;SDS011;40891;47.242;8.648;2023-08-20T07:23:07;11.95;;;5.38;;
54993;SDS011;40891;47.242;8.648;2023-08-20T07:25:33;9.65;;;4.85;;
54993;SDS011;40891;47.242;8.648;2023-08-20T07:27:59;10.60;;;5.22;;
54993;SDS011;40891;47.242;8.648;2023-08-20T07:30:24;15.98;;;5.18;;
54993;SDS011;40891;47.242;8.648;2023-08-20T07:32:50;11.20;;;5.07;;
54993;SDS011;40891;47.242;8.648;2023-08-20T07:35:16;10.00;;;5.15;;
54993;SDS011;40891;47.242;8.648;2023-08-20T07:37:42;7.90;;;5.10;;
54993;SDS011;40891;47.242;8.648;2023-08-20T07:40:07;13.02;;;5.07;;
54993;SDS011;40891;47.242;8.648;2023-08-20T07:42:33;8.32;;;5.40;;
54993;SDS011;40891;47.242;8.648;2023-08-20T07:44:58;10.13;;;5.70;;
54993;SDS011;40891;47.242;8.648;2023-08-20T07:47:23;8.75;;;5.38;;
54993;SDS011;40891;47.242;8.648;2023-08-20T07:49:49;11.70;;;5.28;;
54993;SDS011;40891;47.242;8.648;2023-08-20T07:52:14;12.20;;;5.60;;
54993;SDS011;40891;47.242;8.648;2023-08-20T07:54:39;9.77;;;5.00;;
54993;SDS011;40891;47.242;8.648;2023-08-20T07:57:04;18.52;;;5.30;;
54993;SDS011;40891;47.242;8.648;2023-08-20T07:59:30;10.30;;;5.35;;
54993;SDS011;40891;47.242;8.648;2023-08-20T08:01:55;14.45;;;5.68;;
54993;SDS011;40891;47.242;8.648;2023-08-20T08:04:20;12.55;;;5.07;;
54993;SDS011;40891;47.242;8.648;2023-08-20T08:06:49;14.38;;;5.45;;
54993;SDS011;40891;47.242;8.648;2023-08-20T08:09:17;11.30;;;4.97;;
54993;SDS011;40891;47.242;8.648;2023-08-20T08:11:44;10.90;;;4.93;;
54993;SDS011;40891;47.242;8.648;2023-08-20T08:14:10;6.78;;;4.65;;
54993;SDS011;40891;47.242;8.648;2023-08-20T08:16:36;10.68;;;5.00;;
54993;SDS011;40891;47.242;8.648;2023-08-20T08:19:02;13.57;;;5.70;;
54993;SDS011;40891;47.242;8.648;2023-08-20T08:21:27;7.72;;;5.00;;
54993;SDS011;40891;47.242;8.648;2023-08-20T08:23:52;9.68;;;5.10;;
54993;SDS011;40891;47.242;8.648;2023-08-20T08:26:17;10.13;;;5.43;;
54993;SDS011;40891;47.242;8.648;2023-08-20T08:28:43;10.25;;;5.05;;
54993;SDS011;40891;47.242;8.648;2023-08-20T08:31:08;12.57;;;4.88;;
54993;SDS011;40891;47.242;8.648;2023-08-20T08:33:33;13.73;;;5.60;;
54993;SDS011;40891;47.242;8.648;2023-08-20T08:35:58;8.68;;;4.72;;
54993;SDS011;40891;47.242;8.648;2023-08-20T08:38:24;8.30;;;5.10;;
54993;SDS011;40891;47.242;8.648;2023-08-20T08:40:49;10.27;;;4.93;;
54993;SDS011;40891;47.242;8.648;2023-08-20T08:43:15;11.80;;;4.25;;
54993;SDS011;40891;47.242;8.648;2023-08-20T08:45:42;7.38;;;4.60;;
54993;SDS011;40891;47.242;8.648;2023-08-20T08:48:13;10.98;;;4.90;;
54993;SDS011;40891;47.242;8.648;2023-08-20T08:50:40;14.98;;;4.95;;
54993;SDS011;40891;47.242;8.648;2023-08-20T08:53:06;9.23;;;4.95;;
54993;SDS011;40891;47.242;8.648;2023-08-20T08:55:33;16.65;;;5.00;;
54993;SDS011;40891;47.242;8.648;2023-08-20T08:57:58;13.35;;;4.95;;
54993;SDS011;40891;47.242;8.648;2023-08-20T09:00:23;6.43;;;4.50;;
54993;SDS011;40891;47.242;8.648;2023-08-20T09:02:49;8.60;;;4.50;;
54993;SDS011;40891;47.242;8.648;2023-08-20T09:05:14;10.00;;;4.90;;
54993;SDS011;40891;47.242;8.648;2023-08-20T09:07:43;7.20;;;4.55;;
54993;SDS011;40891;47.242;8.648;2023-08-20T09:10:09;10.07;;;4.50;;
54993;SDS011;40891;47.242;8.648;2023-08-20T09:12:35;11.93;;;4.53;;
54993;SDS011;40891;47.242;8.648;2023-08-20T09:15:01;9.77;;;4.70;;
54993;SDS011;40891;47.242;8.648;2023-08-20T09:17:26;9.73;;;5.03;;
54993;SDS011;40891;47.242;8.648;2023-08-20T09:19:53;11.00;;;5.30;;
54993;SDS011;40891;47.242;8.648;2023-08-20T09:22:21;12.98;;;4.60;;
54993;SDS011;40891;47.242;8.648;2023-08-20T09:24:52;8.57;;;4.95;;
54993;SDS011;40891;47.242;8.648;2023-08-20T09:27:19;9.98;;;5.20;;
54993;SDS011;40891;47.242;8.648;2023-08-20T09:29:45;10.02;;;5.30;;
54993;SDS011;40891;47.242;8.648;2023-08-20T09:32:15;14.90;;;5.13;;
54993;SDS011;40891;47.242;8.648;2023-08-20T09:34:41;7.55;;;4.57;;
54993;SDS011;40891;47.242;8.648;2023-08-20T09:37:07;13.80;;;5.28;;
54993;SDS011;40891;47.242;8.648;2023-08-20T09:39:37;10.40;;;5.38;;
54993;SDS011;40891;47.242;8.648;2023-08-20T09:42:03;9.38;;;5.63;;
54993;SDS011;40891;47.242;8.648;2023-08-20T09:44:34;12.00;;;5.30;;
54993;SDS011;40891;47.242;8.648;2023-08-20T09:47:10;7.50;;;5.00;;
54993;SDS011;40891;47.242;8.648;2023-08-20T09:49:39;9.93;;;5.10;;
54993;SDS011;40891;47.242;8.648;2023-08-20T09:52:06;12.38;;;4.75;;
54993;SDS011;40891;47.242;8.648;2023-08-20T09:57:33;11.38;;;4.45;;
54993;SDS011;40891;47.242;8.648;2023-08-20T10:00:01;8.00;;;4.88;;
54993;SDS011;40891;47.242;8.648;2023-08-20T10:02:30;6.70;;;4.63;;
54993;SDS011;40891;47.242;8.648;2023-08-20T10:04:57;7.00;;;4.60;;
54993;SDS011;40891;47.242;8.648;2023-08-20T10:07:26;9.88;;;4.82;;
54993;SDS011;40891;47.242;8.648;2023-08-20T10:09:56;11.10;;;4.72;;
54993;SDS011;40891;47.242;8.648;2023-08-20T10:12:25;13.80;;;4.60;;
54993;SDS011;40891;47.242;8.648;2023-08-20T10:14:51;8.85;;;4.75;;
54993;SDS011;40891;47.242;8.648;2023-08-20T10:17:16;9.35;;;5.00;;
54993;SDS011;40891;47.242;8.648;2023-08-20T10:19:42;10.40;;;4.97;;
54993;SDS011;40891;47.242;8.648;2023-08-20T10:22:08;9.90;;;5.10;;
54993;SDS011;40891;47.242;8.648;2023-08-20T10:24:52;13.70;;;5.10;;
54993;SDS011;40891;47.242;8.648;2023-08-20T10:27:25;6.82;;;5.00;;
54993;SDS011;40891;47.242;8.648;2023-08-20T10:29:57;10.38;;;5.07;;
54993;SDS011;40891;47.242;8.648;2023-08-20T10:35:12;7.93;;;4.50;;
54993;SDS011;40891;47.242;8.648;2023-08-20T10:37:37;7.95;;;4.57;;
54993;SDS011;40891;47.242;8.648;2023-08-20T10:40:05;6.72;;;4.13;;
54993;SDS011;40891;47.242;8.648;2023-08-20T10:42:30;10.40;;;4.93;;
54993;SDS011;40891;47.242;8.648;2023-08-20T10:47:43;7.63;;;4.40;;
54993;SDS011;40891;47.242;8.648;2023-08-20T10:50:10;9.00;;;4.38;;
54993;SDS011;40891;47.242;8.648;2023-08-20T10:52:40;7.60;;;4.97;;
54993;SDS011;40891;47.242;8.648;2023-08-20T10:55:07;8.50;;;4.53;;
54993;SDS011;40891;47.242;8.648;2023-08-20T10:57:34;9.52;;;4.13;;
54993;SDS011;40891;47.242;8.648;2023-08-20T11:00:01;11.70;;;4.75;;
54993;SDS011;40891;47.242;8.648;2023-08-20T11:02:34;13.27;;;5.45;;
54993;SDS011;40891;47.242;8.648;2023-08-20T11:05:01;13.82;;;4.90;;
54993;SDS011;40891;47.242;8.648;2023-08-20T11:07:27;7.43;;;4.30;;
54993;SDS011;40891;47.242;8.648;2023-08-20T11:09:55;6.93;;;4.25;;
54993;SDS011;40891;47.242;8.648;2023-08-20T11:12:22;7.95;;;4.07;;
54993;SDS011;40891;47.242;8.648;2023-08-20T11:14:47;9.25;;;4.20;;
54993;SDS011;40891;47.242;8.648;2023-08-20T11:17:13;9.85;;;4.45;;
54993;SDS011;40891;47.242;8.648;2023-08-20T11:19:38;9.25;;;3.97;;
54993;SDS011;40891;47.242;8.648;2023-08-20T11:22:03;6.13;;;3.95;;
54993;SDS011;40891;47.242;8.648;2023-08-20T11:24:29;9.18;;;4.40;;
54993;SDS011;40891;47.242;8.648;2023-08-20T11:26:55;6.43;;;4.22;;
54993;SDS011;40891;47.242;8.648;2023-08-20T11:29:20;11.25;;;3.95;;
54993;SDS011;40891;47.242;8.648;2023-08-20T11:31:46;10.45;;;4.65;;
54993;SDS011;40891;47.242;8.648;2023-08-20T11:34:12;10.77;;;4.22;;
54993;SDS011;40891;47.242;8.648;2023-08-20T11:36:38;9.57;;;4.03;;
54993;SDS011;40891;47.242;8.648;2023-08-20T11:39:04;8.38;;;4.00;;
54993;SDS011;40891;47.242;8.648;2023-08-20T11:41:30;6.30;;;3.67;;
54993;SDS011;40891;47.242;8.648;2023-08-20T11:43:56;11.07;;;4.50;;
54993;SDS011;40891;47.242;8.648;2023-08-20T11:46:22;8.48;;;3.88;;
54993;SDS011;40891;47.242;8.648;2023-08-20T11:49:01;7.05;;;3.63;;
54993;SDS011;40891;47.242;8.648;2023-08-20T11:51:28;7.75;;;3.75;;
54993;SDS011;40891;47.242;8.648;2023-08-20T11:53:53;7.68;;;4.10;;
54993;SDS011;40891;47.242;8.648;2023-08-20T11:56:19;7.00;;;3.65;;
54993;SDS011;40891;47.242;8.648;2023-08-20T11:58:49;7.10;;;4.45;;
54993;SDS011;40891;47.242;8.648;2023-08-20T12:01:15;12.27;;;3.92;;
54993;SDS011;40891;47.242;8.648;2023-08-20T12:03:40;7.22;;;3.75;;
54993;SDS011;40891;47.242;8.648;2023-08-20T12:06:18;7.35;;;4.10;;
54993;SDS011;40891;47.242;8.648;2023-08-20T12:08:44;10.80;;;3.80;;
54993;SDS011;40891;47.242;8.648;2023-08-20T12:11:10;8.48;;;4.13;;
54993;SDS011;40891;47.242;8.648;2023-08-20T12:13:35;5.93;;;3.15;;
54993;SDS011;40891;47.242;8.648;2023-08-20T12:16:01;5.13;;;3.22;;
54993;SDS011;40891;47.242;8.648;2023-08-20T12:18:26;6.47;;;3.42;;
54993;SDS011;40891;47.242;8.648;2023-08-20T12:20:52;14.97;;;3.73;;
54993;SDS011;40891;47.242;8.648;2023-08-20T12:23:17;11.65;;;3.67;;
54993;SDS011;40891;47.242;8.648;2023-08-20T12:25:42;7.57;;;3.47;;
54993;SDS011;40891;47.242;8.648;2023-08-20T12:28:08;8.63;;;3.42;;
54993;SDS011;40891;47.242;8.648;2023-08-20T12:30:34;7.95;;;3.20;;
54993;SDS011;40891;47.242;8.648;2023-08-20T12:33:00;6.13;;;3.20;;
54993;SDS011;40891;47.242;8.648;2023-08-20T12:35:25;8.13;;;3.50;;
54993;SDS011;40891;47.242;8.648;2023-08-20T12:37:51;7.97;;;3.33;;
54993;SDS011;40891;47.242;8.648;2023-08-20T12:40:16;8.02;;;3.30;;
54993;SDS011;40891;47.242;8.648;2023-08-20T12:42:43;11.95;;;3.80;;
54993;SDS011;40891;47.242;8.648;2023-08-20T12:45:08;7.28;;;3.30;;
54993;SDS011;40891;47.242;8.648;2023-08-20T12:47:35;7.65;;;2.80;;
54993;SDS011;40891;47.242;8.648;2023-08-20T12:50:00;6.30;;;3.33;;
54993;SDS011;40891;47.242;8.648;2023-08-20T12:52:27;6.82;;;3.00;;
54993;SDS011;40891;47.242;8.648;2023-08-20T12:54:53;8.70;;;3.25;;
54993;SDS011;40891;47.242;8.648;2023-08-20T12:57:18;6.82;;;3.38;;
54993;SDS011;40891;47.242;8.648;2023-08-20T12:59:43;6.57;;;3.28;;
54993;SDS011;40891;47.242;8.648;2023-08-20T13:02:10;8.20;;;3.63;;
54993;SDS011;40891;47.242;8.648;2023-08-20T13:04:35;6.25;;;3.50;;
54993;SDS011;40891;47.242;8.648;2023-08-20T13:07:01;7.50;;;3.60;;
54993;SDS011;40891;47.242;8.648;2023-08-20T13:09:27;12.80;;;3.72;;
54993;SDS011;40891;47.242;8.648;2023-08-20T13:11:53;4.63;;;3.47;;
54993;SDS011;40891;47.242;8.648;2023-08-20T13:14:20;6.45;;;3.70;;
54993;SDS011;40891;47.242;8.648;2023-08-20T13:16:46;8.10;;;3.70;;
54993;SDS011;40891;47.242;8.648;2023-08-20T13:19:11;7.70;;;3.38;;
54993;SDS011;40891;47.242;8.648;2023-08-20T13:21:37;6.25;;;3.30;;
54993;SDS011;40891;47.242;8.648;2023-08-20T13:24:02;6.88;;;3.65;;
54993;SDS011;40891;47.242;8.648;2023-08-20T13:26:27;6.00;;;3.70;;
54993;SDS011;40891;47.242;8.648;2023-08-20T13:28:53;10.37;;;3.70;;
54993;SDS011;40891;47.242;8.648;2023-08-20T13:31:18;10.18;;;3.53;;
54993;SDS011;40891;47.242;8.648;2023-08-20T13:33:43;6.97;;;3.65;;
54993;SDS011;40891;47.242;8.648;2023-08-20T13:36:09;5.43;;;3.35;;
54993;SDS011;40891;47.242;8.648;2023-08-20T13:38:34;6.13;;;3.10;;
54993;SDS011;40891;47.242;8.648;2023-08-20T13:40:59;11.05;;;3.67;;
54993;SDS011;40891;47.242;8.648;2023-08-20T13:43:25;7.32;;;3.50;;
54993;SDS011;40891;47.242;8.648;2023-08-20T13:45:50;9.55;;;3.80;;
54993;SDS011;40891;47.242;8.648;2023-08-20T13:48:15;5.22;;;3.50;;
54993;SDS011;40891;47.242;8.648;2023-08-20T13:50:40;7.70;;;3.58;;
54993;SDS011;40891;47.242;8.648;2023-08-20T13:53:06;8.60;;;3.20;;
54993;SDS011;40891;47.242;8.648;2023-08-20T13:55:31;7.38;;;3.20;;
54993;SDS011;40891;47.242;8.648;2023-08-20T13:57:57;7.05;;;3.47;;
54993;SDS011;40891;47.242;8.648;2023-08-20T14:00:22;6.28;;;3.67;;
54993;SDS011;40891;47.242;8.648;2023-08-20T14:02:47;6.10;;;2.90;;
54993;SDS011;40891;47.242;8.648;2023-08-20T14:05:13;7.45;;;3.55;;
54993;SDS011;40891;47.242;8.648;2023-08-20T14:07:38;7.60;;;3.22;;
54993;SDS011;40891;47.242;8.648;2023-08-20T14:10:03;7.78;;;3.58;;
54993;SDS011;40891;47.242;8.648;2023-08-20T14:12:29;9.98;;;3.28;;
54993;SDS011;40891;47.242;8.648;2023-08-20T14:14:55;5.82;;;3.08;;
54993;SDS011;40891;47.242;8.648;2023-08-20T14:17:20;7.70;;;3.60;;
54993;SDS011;40891;47.242;8.648;2023-08-20T14:19:46;7.07;;;3.45;;
54993;SDS011;40891;47.242;8.648;2023-08-20T14:22:11;6.82;;;3.17;;
54993;SDS011;40891;47.242;8.648;2023-08-20T14:24:36;7.57;;;3.13;;
54993;SDS011;40891;47.242;8.648;2023-08-20T14:27:02;11.00;;;3.17;;
54993;SDS011;40891;47.242;8.648;2023-08-20T14:29:27;6.85;;;3.10;;
54993;SDS011;40891;47.242;8.648;2023-08-20T14:31:53;6.88;;;2.85;;
54993;SDS011;40891;47.242;8.648;2023-08-20T14:34:18;11.25;;;3.28;;
54993;SDS011;40891;47.242;8.648;2023-08-20T14:36:44;6.40;;;2.85;;
54993;SDS011;40891;47.242;8.648;2023-08-20T14:39:09;7.30;;;3.22;;
54993;SDS011;40891;47.242;8.648;2023-08-20T14:41:34;6.57;;;3.20;;
54993;SDS011;40891;47.242;8.648;2023-08-20T14:44:00;8.70;;;3.20;;
54993;SDS011;40891;47.242;8.648;2023-08-20T14:46:25;6.95;;;3.15;;
54993;SDS011;40891;47.242;8.648;2023-08-20T14:48:51;8.52;;;3.45;;
54993;SDS011;40891;47.242;8.648;2023-08-20T14:51:16;8.02;;;3.35;;
54993;SDS011;40891;47.242;8.648;2023-08-20T14:53:42;10.00;;;3.57;;